Cmb Ariane — VRIT7 — position and weather

sailwx.info

Track history (hours):
 
Tides and Currents Weather Stations Pressure Air Temp Water Temp Dewpoint Dewpoint Depression Visibility Wind Speed Wind Dir Waves Ship Positions

Cmb Ariane

Last reported at 2015-Aug-01 11:33 UTC. Time now 2015-Aug-01 11:53 UTC.
Position N 54°58' E 018°29'.

Length 180 m; draft 9.6 m.

Type: Cargo ship. MMSI: 477229600.

Date/timePositionNaut miles runAvg speedWind from/ knotsBaromVisibWave heightAir tempDewpointWater temp
2015-Aug-01 11:33N 54°58' E 018°29'1313.1
2015-Aug-01 10:33N 54°57' E 018°06'10512.8
2015-Aug-01 02:21N 54°39' E 015°07'2513.0
2015-Aug-01 00:26N 54°36' E 014°24'1213.0
2015-Jul-31 23:33N 54°40' E 014°05'1313.0
2015-Jul-31 22:33N 54°47' E 013°46'1312.8
2015-Jul-31 21:31N 54°50' E 013°23'4711.8
2015-Jul-31 17:33N 54°27' E 012°13'1212.1
2015-Jul-31 16:33N 54°25' E 011°53'1313.1
2015-Jul-31 15:33N 54°29' E 011°31'1413.7
2015-Jul-31 14:33N 54°35' E 011°11'1711.3
2015-Jul-31 13:06N 54°47' E 010°51'815.2
2015-Jul-31 12:33N 54°56' E 010°54'1514.5
2015-Jul-31 11:33N 55°09' E 011°03'10011.1
2015-Jul-31 02:34N 56°45' E 011°51'1313.3
2015-Jul-31 01:33N 56°58' E 011°43'1312.9
2015-Jul-31 00:33N 57°10' E 011°35'1312.7
2015-Jul-30 23:33N 57°22' E 011°27'1212.2
2015-Jul-30 22:33N 57°31' E 011°13'1211.8
2015-Jul-30 21:33N 57°39' E 010°56'1010.1
2015-Jul-30 20:33N 57°41' E 010°38'1 0.5
2015-Jul-30 19:32N 57°41' E 010°38'0 0.0
2015-Jul-30 18:31N 57°41' E 010°38'4 3.6
2015-Jul-30 17:33N 57°43' E 010°43'7 6.6
2015-Jul-30 16:33N 57°49' E 010°36'1414.2
2015-Jul-30 15:34N 57°47' E 010°09'1414.0
2015-Jul-30 14:33N 57°44' E 009°43'1613.4
2015-Jul-30 13:22N 57°42' E 009°14'5213.7
2015-Jul-30 09:33N 57°10' E 007°58'1313.4
2015-Jul-30 08:33N 57°02' E 007°37'18510.2
2015-Jul-29 14:29N 54°16' E 005°13'1111.4
2015-Jul-29 13:31N 54°06' E 005°07'1111.6
2015-Jul-29 12:31N 53°55' E 005°01'1111.5
2015-Jul-29 11:33N 53°44' E 004°55'1211.7
2015-Jul-29 10:33N 53°34' E 004°47'1211.5
2015-Jul-29 09:33N 53°23' E 004°40'4811.6
2015-Jul-29 05:25N 52°41' E 004°01'9113.3
2015-Jul-28 22:32N 51°34' E 002°20'1313.4
2015-Jul-28 21:34N 51°22' E 002°11'1413.7
2015-Jul-28 20:34N 51°11' E 001°58'1414.0
2015-Jul-28 19:33N 51°03' E 001°40'1313.1
2015-Jul-28 18:34N 50°53' E 001°27'4811.5
2015-Jul-28 14:21N 50°24' E 000°25'  
2015-Jul-25 21:20N 41°10' W 012°20'2212.3
2015-Jul-25 19:33N 40°50' W 012°33'1412.0
2015-Jul-25 18:21N 40°37' W 012°42'1112.1
2015-Jul-25 17:25N 40°27' W 012°49'1512.2
2015-Jul-25 16:13N 40°14' W 012°58'2312.4
2015-Jul-25 14:22N 39°54' W 013°12'1012.6
2015-Jul-25 13:33N 39°45' W 013°18'1412.3
2015-Jul-25 12:26N 39°33' W 013°27'1112.1
2015-Jul-25 11:33N 39°24' W 013°33'1212.0
2015-Jul-25 10:33N 39°13' W 013°40'  
Track history (hours):
 
Tides and Currents Weather Stations Pressure Air Temp Water Temp Dewpoint Dewpoint Depression Visibility Wind Speed Wind Dir Waves Ship Positions

Cmb Ariane

Last reported at 2015-Aug-01 11:33 UTC. Time now 2015-Aug-01 11:54 UTC.
Position N 54°58' E 018°29'.

Length 180 m; draft 9.6 m.

Type: Cargo ship. MMSI: 477229600.

Date/timePositionNaut miles runAvg speedWind from/ knotsBaromVisibWave heightAir tempDewpointWater temp
2015-Aug-01 11:33N 54°58' E 018°29'1313.1
2015-Aug-01 10:33N 54°57' E 018°06'10512.8
2015-Aug-01 02:21N 54°39' E 015°07'2513.0
2015-Aug-01 00:26N 54°36' E 014°24'1213.0
2015-Jul-31 23:33N 54°40' E 014°05'1313.0
2015-Jul-31 22:33N 54°47' E 013°46'1312.8
2015-Jul-31 21:31N 54°50' E 013°23'4711.8
2015-Jul-31 17:33N 54°27' E 012°13'1212.1
2015-Jul-31 16:33N 54°25' E 011°53'1313.1
2015-Jul-31 15:33N 54°29' E 011°31'1413.7
2015-Jul-31 14:33N 54°35' E 011°11'1711.3
2015-Jul-31 13:06N 54°47' E 010°51'815.2
2015-Jul-31 12:33N 54°56' E 010°54'1514.5
2015-Jul-31 11:33N 55°09' E 011°03'10011.1
2015-Jul-31 02:34N 56°45' E 011°51'1313.3
2015-Jul-31 01:33N 56°58' E 011°43'1312.9
2015-Jul-31 00:33N 57°10' E 011°35'1312.7
2015-Jul-30 23:33N 57°22' E 011°27'1212.2
2015-Jul-30 22:33N 57°31' E 011°13'1211.8
2015-Jul-30 21:33N 57°39' E 010°56'1010.1
2015-Jul-30 20:33N 57°41' E 010°38'1 0.5
2015-Jul-30 19:32N 57°41' E 010°38'0 0.0
2015-Jul-30 18:31N 57°41' E 010°38'4 3.6
2015-Jul-30 17:33N 57°43' E 010°43'7 6.6
2015-Jul-30 16:33N 57°49' E 010°36'1414.2
2015-Jul-30 15:34N 57°47' E 010°09'1414.0
2015-Jul-30 14:33N 57°44' E 009°43'1613.4
2015-Jul-30 13:22N 57°42' E 009°14'5213.7
2015-Jul-30 09:33N 57°10' E 007°58'1313.4
2015-Jul-30 08:33N 57°02' E 007°37'18510.2
2015-Jul-29 14:29N 54°16' E 005°13'1111.4
2015-Jul-29 13:31N 54°06' E 005°07'1111.6
2015-Jul-29 12:31N 53°55' E 005°01'1111.5
2015-Jul-29 11:33N 53°44' E 004°55'1211.7
2015-Jul-29 10:33N 53°34' E 004°47'1211.5
2015-Jul-29 09:33N 53°23' E 004°40'4811.6
2015-Jul-29 05:25N 52°41' E 004°01'9113.3
2015-Jul-28 22:32N 51°34' E 002°20'1313.4
2015-Jul-28 21:34N 51°22' E 002°11'1413.7
2015-Jul-28 20:34N 51°11' E 001°58'1414.0
2015-Jul-28 19:33N 51°03' E 001°40'1313.1
2015-Jul-28 18:34N 50°53' E 001°27'4811.5
2015-Jul-28 14:21N 50°24' E 000°25'  
2015-Jul-25 21:20N 41°10' W 012°20'2212.3
2015-Jul-25 19:33N 40°50' W 012°33'1412.0
2015-Jul-25 18:21N 40°37' W 012°42'1112.1
2015-Jul-25 17:25N 40°27' W 012°49'1512.2
2015-Jul-25 16:13N 40°14' W 012°58'2312.4
2015-Jul-25 14:22N 39°54' W 013°12'1012.6
2015-Jul-25 13:33N 39°45' W 013°18'1412.3
2015-Jul-25 12:26N 39°33' W 013°27'1112.1
2015-Jul-25 11:33N 39°24' W 013°33'1212.0
2015-Jul-25 10:33N 39°13' W 013°40'  

Dump ship's entire track history